createdAt,value
2017-07-18T00:00:10.529Z,0
2017-07-18T00:00:50.977Z,0
2017-07-18T00:01:31.439Z,0
2017-07-18T00:02:11.893Z,0
2017-07-18T00:02:52.349Z,0
2017-07-18T00:03:32.803Z,0
2017-07-18T00:04:13.260Z,0
2017-07-18T00:04:53.712Z,0
2017-07-18T00:05:34.163Z,0
2017-07-18T00:06:14.624Z,0
2017-07-18T00:06:55.092Z,0
2017-07-18T00:07:35.541Z,0
2017-07-18T00:08:16.000Z,0
2017-07-18T00:08:56.449Z,0
2017-07-18T00:09:36.902Z,0
2017-07-18T00:10:17.346Z,0
2017-07-18T00:10:57.794Z,0
2017-07-18T00:11:38.246Z,0
2017-07-18T00:12:18.697Z,0
2017-07-18T00:12:59.146Z,0
2017-07-18T00:13:39.592Z,0
2017-07-18T00:14:20.046Z,0
2017-07-18T00:15:00.498Z,0
2017-07-18T00:15:40.952Z,0
2017-07-18T00:16:21.408Z,0
2017-07-18T00:17:01.866Z,0
2017-07-18T00:17:42.312Z,0
2017-07-18T00:18:22.766Z,0
2017-07-18T00:19:03.217Z,0
2017-07-18T00:19:43.677Z,0
2017-07-18T00:20:24.140Z,0
2017-07-18T00:21:04.592Z,0
2017-07-18T00:21:45.041Z,0
2017-07-18T00:22:25.498Z,0
2017-07-18T00:23:05.953Z,0
2017-07-18T00:23:46.411Z,0
2017-07-18T00:24:26.860Z,0
2017-07-18T00:25:07.307Z,0
2017-07-18T00:25:47.762Z,0
2017-07-18T00:26:28.216Z,0
2017-07-18T00:27:08.656Z,0
2017-07-18T00:27:49.117Z,0
2017-07-18T00:28:29.572Z,0
2017-07-18T00:29:10.023Z,0
2017-07-18T00:29:50.483Z,0
2017-07-18T00:30:30.933Z,0
2017-07-18T00:31:11.382Z,0
2017-07-18T00:31:51.851Z,0
2017-07-18T00:32:32.329Z,0
2017-07-18T00:33:12.758Z,0
2017-07-18T00:33:53.198Z,0
2017-07-18T00:34:33.653Z,0
2017-07-18T00:35:14.107Z,0
2017-07-18T00:35:54.593Z,0
2017-07-18T00:36:35.032Z,0
2017-07-18T00:37:15.490Z,0
2017-07-18T00:37:55.947Z,0
2017-07-18T00:38:36.393Z,0
2017-07-18T00:39:16.850Z,0
2017-07-18T00:39:57.303Z,0
2017-07-18T00:40:37.756Z,0
2017-07-18T00:41:18.215Z,0
2017-07-18T00:41:58.668Z,0
2017-07-18T00:42:39.122Z,0
2017-07-18T00:43:19.577Z,0
2017-07-18T00:44:00.029Z,0
2017-07-18T00:44:40.484Z,0
2017-07-18T00:45:20.948Z,0
2017-07-18T00:46:01.398Z,0
2017-07-18T00:46:41.848Z,0
2017-07-18T00:47:22.300Z,0
2017-07-18T00:48:02.757Z,0
2017-07-18T00:48:43.210Z,0
2017-07-18T00:49:23.660Z,0
2017-07-18T00:50:04.114Z,0
2017-07-18T00:50:44.570Z,0
2017-07-18T00:51:25.024Z,0
2017-07-18T00:52:05.477Z,0
2017-07-18T00:52:45.936Z,0
2017-07-18T00:53:26.387Z,0
2017-07-18T00:54:06.841Z,0
2017-07-18T00:54:47.289Z,0
2017-07-18T00:55:27.742Z,0
2017-07-18T00:56:08.197Z,0
2017-07-18T00:56:48.648Z,0
2017-07-18T00:57:29.100Z,0
2017-07-18T00:58:09.556Z,0
2017-07-18T00:58:50.014Z,0
2017-07-18T00:59:30.467Z,0
2017-07-18T01:00:10.921Z,0
2017-07-18T01:00:51.380Z,0
2017-07-18T01:01:31.832Z,0
2017-07-18T01:02:12.285Z,0
2017-07-18T01:02:52.738Z,0
2017-07-18T01:03:33.190Z,0
2017-07-18T01:04:13.644Z,0
2017-07-18T01:04:54.100Z,0
2017-07-18T01:05:34.556Z,0
2017-07-18T01:06:15.012Z,0
2017-07-18T01:06:55.468Z,0
2017-07-18T01:07:35.916Z,0
2017-07-18T01:08:16.374Z,0
2017-07-18T01:08:56.836Z,0
2017-07-18T01:09:37.283Z,0
2017-07-18T01:10:17.733Z,0
2017-07-18T01:10:58.186Z,0
2017-07-18T01:11:38.635Z,0
2017-07-18T01:12:19.091Z,0
2017-07-18T01:12:59.542Z,0
2017-07-18T01:13:40.066Z,0
2017-07-18T01:14:20.483Z,0
2017-07-18T01:15:00.937Z,0
2017-07-18T01:15:41.401Z,0
2017-07-18T01:16:21.853Z,0
2017-07-18T01:17:02.309Z,0
2017-07-18T01:17:42.761Z,0
2017-07-18T01:18:23.219Z,0
2017-07-18T01:19:03.672Z,0
2017-07-18T01:19:44.129Z,0
2017-07-18T01:20:24.588Z,0
2017-07-18T01:21:05.035Z,0
2017-07-18T01:21:45.489Z,0
2017-07-18T01:22:25.946Z,0
2017-07-18T01:23:06.393Z,0
2017-07-18T01:23:46.836Z,0
2017-07-18T01:24:27.289Z,0
2017-07-18T01:25:07.746Z,0
2017-07-18T01:25:48.189Z,0
2017-07-18T01:26:28.638Z,0
2017-07-18T01:27:09.099Z,0
2017-07-18T01:27:49.545Z,0
2017-07-18T01:28:30.002Z,0
2017-07-18T01:29:10.454Z,0
2017-07-18T01:29:50.913Z,0
2017-07-18T01:30:31.368Z,0
2017-07-18T01:31:11.822Z,0
2017-07-18T01:31:52.275Z,0
2017-07-18T01:32:32.730Z,0
2017-07-18T01:33:13.188Z,0
2017-07-18T01:33:53.641Z,0
2017-07-18T01:34:34.095Z,0
2017-07-18T01:35:14.543Z,0
2017-07-18T01:35:54.989Z,0
2017-07-18T01:36:35.441Z,0
2017-07-18T01:37:15.892Z,0
2017-07-18T01:37:56.352Z,0
2017-07-18T01:38:36.802Z,0
2017-07-18T01:39:17.274Z,0
2017-07-18T01:39:57.723Z,0
2017-07-18T01:40:38.174Z,0
2017-07-18T01:41:18.629Z,0
2017-07-18T01:41:59.085Z,0
2017-07-18T01:42:39.542Z,0
2017-07-18T01:43:19.999Z,0
2017-07-18T01:44:00.461Z,0
2017-07-18T01:44:40.915Z,0
2017-07-18T01:45:21.370Z,0
2017-07-18T01:46:01.832Z,0
2017-07-18T01:46:42.280Z,0
2017-07-18T01:47:22.733Z,0
2017-07-18T01:48:03.206Z,0
2017-07-18T01:48:43.643Z,0
2017-07-18T01:49:24.098Z,0
2017-07-18T01:50:04.554Z,0
2017-07-18T01:50:45.008Z,0
2017-07-18T01:51:25.462Z,0
2017-07-18T01:52:05.919Z,0
2017-07-18T01:52:46.375Z,0
2017-07-18T01:53:26.824Z,0
2017-07-18T01:54:07.281Z,0
2017-07-18T01:54:47.737Z,0
2017-07-18T01:55:28.193Z,0
2017-07-18T01:56:08.655Z,0
2017-07-18T01:56:49.112Z,0
2017-07-18T01:57:29.563Z,0
2017-07-18T01:58:10.016Z,0
2017-07-18T01:58:50.472Z,0
2017-07-18T01:59:30.923Z,0
2017-07-18T02:00:11.379Z,0
2017-07-18T02:00:51.837Z,0
2017-07-18T02:01:32.292Z,0
2017-07-18T02:02:12.742Z,0
2017-07-18T02:02:53.196Z,0
2017-07-18T02:03:33.651Z,0
2017-07-18T02:04:14.110Z,0
2017-07-18T02:04:54.569Z,0
2017-07-18T02:05:35.026Z,0
2017-07-18T02:06:15.478Z,0
2017-07-18T02:06:55.937Z,0
2017-07-18T02:07:36.391Z,0
2017-07-18T02:08:16.846Z,0
2017-07-18T02:08:57.298Z,0
2017-07-18T02:09:37.769Z,0
2017-07-18T02:10:18.227Z,0
2017-07-18T02:10:58.689Z,0
2017-07-18T02:11:39.143Z,0
2017-07-18T02:12:19.598Z,0
2017-07-18T02:13:00.057Z,0
2017-07-18T02:13:40.509Z,0
2017-07-18T02:14:20.958Z,0
2017-07-18T02:15:01.410Z,0
2017-07-18T02:15:41.865Z,0
2017-07-18T02:16:22.323Z,0
2017-07-18T02:17:02.777Z,0
2017-07-18T02:17:43.232Z,0
2017-07-18T02:18:23.713Z,0
2017-07-18T02:19:04.169Z,0
2017-07-18T02:19:44.620Z,0
2017-07-18T02:20:25.078Z,0
2017-07-18T02:21:05.532Z,0
2017-07-18T02:21:45.987Z,0
2017-07-18T02:22:26.445Z,0
2017-07-18T02:23:06.902Z,0
2017-07-18T02:23:47.357Z,0
2017-07-18T02:24:27.807Z,0
2017-07-18T02:25:08.262Z,0
2017-07-18T02:25:48.713Z,0
2017-07-18T02:26:29.175Z,0
2017-07-18T02:27:09.634Z,0
2017-07-18T02:27:50.091Z,0
2017-07-18T02:28:30.563Z,0
2017-07-18T02:29:11.010Z,0
2017-07-18T02:29:51.468Z,0
2017-07-18T02:30:31.911Z,0
2017-07-18T02:31:12.364Z,0
2017-07-18T02:31:52.822Z,0
2017-07-18T02:32:33.275Z,0
2017-07-18T02:33:13.738Z,0
2017-07-18T02:33:54.187Z,0
2017-07-18T02:34:34.640Z,0
2017-07-18T02:35:15.097Z,0
2017-07-18T02:35:55.554Z,0
2017-07-18T02:36:36.005Z,0
2017-07-18T02:37:16.455Z,0
2017-07-18T02:37:56.906Z,0
2017-07-18T02:38:37.361Z,0
2017-07-18T02:39:17.824Z,0
2017-07-18T02:39:58.270Z,0
2017-07-18T02:40:38.714Z,0
2017-07-18T02:41:19.170Z,0
2017-07-18T02:41:59.627Z,0
2017-07-18T02:42:40.086Z,0
2017-07-18T02:43:20.538Z,0
2017-07-18T02:44:00.984Z,0
2017-07-18T02:44:41.449Z,0
2017-07-18T02:45:21.898Z,0
2017-07-18T02:46:02.342Z,0
2017-07-18T02:48:20.339Z,0
2017-07-18T02:49:00.782Z,0
2017-07-18T02:49:41.233Z,0
2017-07-18T02:50:21.682Z,0
2017-07-18T02:51:02.128Z,0
2017-07-18T02:51:42.573Z,0
2017-07-18T02:52:23.022Z,0
2017-07-18T02:53:03.475Z,0
2017-07-18T02:53:43.928Z,0
2017-07-18T02:54:24.383Z,0
2017-07-18T02:55:04.839Z,0
2017-07-18T02:55:45.298Z,0
2017-07-18T02:56:25.747Z,0
2017-07-18T02:57:06.180Z,0
2017-07-18T02:57:46.576Z,0
2017-07-18T02:58:26.989Z,0
2017-07-18T02:59:07.408Z,0
2017-07-18T02:59:47.844Z,0
2017-07-18T03:00:28.295Z,0
2017-07-18T03:01:08.751Z,0
2017-07-18T03:01:49.206Z,0
2017-07-18T03:02:29.661Z,0
2017-07-18T03:03:10.121Z,0
2017-07-18T03:03:50.571Z,0
2017-07-18T03:04:31.017Z,0
2017-07-18T03:05:11.487Z,0
2017-07-18T03:05:51.946Z,0
2017-07-18T03:06:32.384Z,0
2017-07-18T03:07:12.842Z,0
2017-07-18T03:07:53.295Z,0
2017-07-18T03:08:33.741Z,0
2017-07-18T03:09:14.180Z,0
2017-07-18T03:09:54.617Z,0
2017-07-18T03:10:35.079Z,0
2017-07-18T03:11:15.526Z,0
2017-07-18T03:11:55.960Z,0
2017-07-18T03:12:36.412Z,0
2017-07-18T03:13:16.864Z,0
2017-07-18T03:13:57.341Z,0
2017-07-18T03:14:37.780Z,0
2017-07-18T03:15:18.222Z,0
2017-07-18T03:15:58.682Z,0
2017-07-18T03:16:39.136Z,0
2017-07-18T03:17:19.591Z,0
2017-07-18T03:18:00.042Z,0
2017-07-18T03:18:40.499Z,0
2017-07-18T03:19:20.952Z,0
2017-07-18T03:20:01.408Z,0
2017-07-18T03:20:41.863Z,0
2017-07-18T03:21:22.315Z,0
2017-07-18T03:22:02.776Z,0
2017-07-18T03:22:43.230Z,0
2017-07-18T03:23:23.683Z,0
2017-07-18T03:24:04.139Z,0
2017-07-18T03:24:44.599Z,0
2017-07-18T03:25:25.052Z,0
2017-07-18T03:26:05.506Z,0
2017-07-18T03:26:45.956Z,0
2017-07-18T03:27:26.415Z,0
2017-07-18T03:28:06.864Z,0
2017-07-18T03:28:47.313Z,0
2017-07-18T03:29:27.764Z,0
2017-07-18T03:30:08.225Z,0
2017-07-18T03:30:48.674Z,0
2017-07-18T03:31:29.134Z,0
2017-07-18T03:32:09.588Z,0
2017-07-18T03:32:50.038Z,0
2017-07-18T03:33:30.498Z,0
2017-07-18T03:34:10.938Z,0
2017-07-18T03:34:51.394Z,4
2017-07-18T03:35:31.864Z,0
2017-07-18T03:36:12.313Z,0
2017-07-18T03:36:52.776Z,0
2017-07-18T03:37:33.226Z,0
2017-07-18T03:38:13.680Z,0
2017-07-18T03:38:54.139Z,0
2017-07-18T03:39:34.591Z,0
2017-07-18T03:40:15.041Z,0
2017-07-18T03:40:55.513Z,0
2017-07-18T03:41:35.955Z,0
2017-07-18T03:42:16.406Z,0
2017-07-18T03:42:56.858Z,0
2017-07-18T03:43:37.311Z,0
2017-07-18T03:44:17.768Z,0
2017-07-18T03:44:58.224Z,0
2017-07-18T03:45:38.948Z,0
2017-07-18T03:46:19.404Z,0
2017-07-18T03:46:59.859Z,0
2017-07-18T03:47:40.330Z,0
2017-07-18T03:48:20.789Z,0
2017-07-18T03:49:01.240Z,0
2017-07-18T03:49:41.671Z,24
2017-07-18T03:50:22.127Z,28
2017-07-18T03:51:02.580Z,32
2017-07-18T03:51:43.021Z,32
2017-07-18T03:52:23.469Z,36
2017-07-18T03:53:03.913Z,32
2017-07-18T03:53:44.368Z,32
2017-07-18T03:54:24.825Z,36
2017-07-18T03:55:05.350Z,32
2017-07-18T03:55:45.727Z,36
2017-07-18T03:56:26.188Z,36
2017-07-18T03:57:06.640Z,40
2017-07-18T03:57:47.095Z,36
2017-07-18T03:58:27.540Z,36
2017-07-18T03:59:07.985Z,40
2017-07-18T03:59:48.446Z,44
2017-07-18T04:00:28.898Z,40
2017-07-18T04:01:09.356Z,44
2017-07-18T04:01:49.808Z,40
2017-07-18T04:02:30.259Z,44
2017-07-18T04:03:10.709Z,48
2017-07-18T04:03:51.165Z,48
2017-07-18T04:04:31.622Z,52
2017-07-18T04:05:12.076Z,56
2017-07-18T04:05:52.570Z,56
2017-07-18T04:06:33.025Z,56
2017-07-18T04:07:13.478Z,60
2017-07-18T04:07:53.933Z,60
2017-07-18T04:08:34.384Z,64
2017-07-18T04:09:14.840Z,64
2017-07-18T04:09:55.282Z,64
2017-07-18T04:10:35.736Z,68
2017-07-18T04:11:16.190Z,72
2017-07-18T04:11:56.648Z,72
2017-07-18T04:12:37.102Z,76
2017-07-18T04:13:17.556Z,84
2017-07-18T04:13:58.011Z,84
2017-07-18T04:14:38.467Z,88
2017-07-18T04:15:18.922Z,96
2017-07-18T04:15:59.375Z,96
2017-07-18T04:16:39.827Z,96
2017-07-18T04:17:20.280Z,96
2017-07-18T04:18:00.734Z,96
2017-07-18T04:18:41.190Z,96
2017-07-18T04:19:21.652Z,92
2017-07-18T04:20:02.124Z,96
2017-07-18T04:20:42.557Z,92
2017-07-18T04:21:23.004Z,96
2017-07-18T04:22:03.451Z,96
2017-07-18T04:22:43.899Z,96
2017-07-18T04:23:24.370Z,96
2017-07-18T04:24:04.797Z,100
2017-07-18T04:24:45.246Z,96
2017-07-18T04:25:25.694Z,100
2017-07-18T04:26:06.148Z,100
2017-07-18T04:26:46.607Z,96
2017-07-18T04:27:27.060Z,100
2017-07-18T04:28:07.512Z,96
2017-07-18T04:28:47.966Z,96
2017-07-18T04:29:28.421Z,96
2017-07-18T04:30:08.877Z,100
2017-07-18T04:30:49.333Z,100
2017-07-18T04:31:29.786Z,100
2017-07-18T04:32:10.245Z,108
2017-07-18T04:32:50.698Z,112
2017-07-18T04:33:31.153Z,116
2017-07-18T04:34:11.606Z,112
2017-07-18T04:34:52.062Z,116
2017-07-18T04:35:32.510Z,112
2017-07-18T04:36:12.965Z,116
2017-07-18T04:36:53.419Z,116
2017-07-18T04:37:33.872Z,120
2017-07-18T04:38:14.330Z,124
2017-07-18T04:38:54.787Z,128
2017-07-18T04:39:35.236Z,132
2017-07-18T04:40:15.708Z,132
2017-07-18T04:40:56.165Z,140
2017-07-18T04:41:36.619Z,148
2017-07-18T04:42:17.074Z,152
2017-07-18T04:42:57.533Z,156
2017-07-18T04:43:37.981Z,156
2017-07-18T04:44:18.440Z,164
2017-07-18T04:44:58.889Z,168
2017-07-18T04:45:39.336Z,176
2017-07-18T04:46:19.794Z,184
2017-07-18T04:47:00.253Z,188
2017-07-18T04:47:40.703Z,192
2017-07-18T04:48:21.160Z,196
2017-07-18T04:49:01.619Z,196
2017-07-18T04:49:42.075Z,188
2017-07-18T04:50:22.538Z,180
2017-07-18T04:51:02.999Z,168
2017-07-18T04:51:43.449Z,168
2017-07-18T04:52:23.900Z,168
2017-07-18T04:53:04.349Z,172
2017-07-18T04:53:44.795Z,176
2017-07-18T04:54:25.246Z,184
2017-07-18T04:55:05.694Z,192
2017-07-18T04:55:46.161Z,196
2017-07-18T04:56:26.640Z,196
2017-07-18T04:57:07.094Z,188
2017-07-18T04:57:47.548Z,176
2017-07-18T04:58:28.008Z,168
2017-07-18T04:59:08.459Z,168
2017-07-18T04:59:48.913Z,168
2017-07-18T05:00:29.367Z,172
2017-07-18T05:01:09.818Z,160
2017-07-18T05:01:50.281Z,160
2017-07-18T05:02:30.721Z,160
2017-07-18T05:03:11.177Z,168
2017-07-18T05:03:51.656Z,168
2017-07-18T05:04:32.093Z,168
2017-07-18T05:05:12.598Z,172
2017-07-18T05:07:25.434Z,176
2017-07-18T05:08:05.892Z,176
2017-07-18T05:08:46.333Z,172
2017-07-18T05:09:26.784Z,172
2017-07-18T05:10:07.342Z,172
2017-07-18T05:10:47.704Z,172
2017-07-18T05:11:28.155Z,176
2017-07-18T05:12:08.607Z,176
2017-07-18T05:12:49.063Z,180
2017-07-18T05:13:29.512Z,180
2017-07-18T05:14:09.968Z,184
2017-07-18T05:14:50.414Z,188
2017-07-18T05:15:30.863Z,196
2017-07-18T05:16:11.320Z,204
2017-07-18T05:16:51.780Z,204
2017-07-18T05:17:32.230Z,200
2017-07-18T05:18:12.687Z,208
2017-07-18T05:18:53.138Z,212
2017-07-18T05:19:33.593Z,220
2017-07-18T05:20:14.045Z,228
2017-07-18T05:20:54.495Z,236
2017-07-18T05:21:34.941Z,244
2017-07-18T05:22:15.391Z,248
2017-07-18T05:22:55.844Z,260
2017-07-18T05:23:36.301Z,264
2017-07-18T05:24:16.758Z,268
2017-07-18T05:24:57.217Z,272
2017-07-18T05:25:37.666Z,276
2017-07-18T05:26:18.121Z,280
2017-07-18T05:26:58.581Z,284
2017-07-18T05:27:39.040Z,288
2017-07-18T05:28:19.497Z,292
2017-07-18T05:28:59.954Z,300
2017-07-18T05:29:40.475Z,304
2017-07-18T05:30:20.927Z,308
2017-07-18T05:31:01.376Z,312
2017-07-18T05:31:41.830Z,316
2017-07-18T05:32:22.287Z,320
2017-07-18T05:33:02.745Z,328
2017-07-18T05:33:43.196Z,336
2017-07-18T05:34:23.653Z,368
2017-07-18T05:35:04.111Z,352
2017-07-18T05:35:44.572Z,352
2017-07-18T05:36:25.021Z,360
2017-07-18T05:37:05.473Z,368
2017-07-18T05:37:45.926Z,380
2017-07-18T05:38:26.386Z,384
2017-07-18T05:39:06.833Z,380
2017-07-18T05:39:47.290Z,380
2017-07-18T05:40:27.744Z,392
2017-07-18T05:41:08.194Z,416
2017-07-18T05:41:48.653Z,432
2017-07-18T05:42:29.107Z,432
2017-07-18T05:43:09.596Z,456
2017-07-18T05:43:50.051Z,496
2017-07-18T05:44:30.498Z,588
2017-07-18T05:45:10.948Z,624
2017-07-18T05:45:51.401Z,640
2017-07-18T05:46:31.852Z,656
2017-07-18T05:47:12.310Z,668
2017-07-18T05:47:52.768Z,680
2017-07-18T05:48:33.222Z,688
2017-07-18T05:49:13.674Z,692
2017-07-18T05:49:54.124Z,692
2017-07-18T05:50:34.573Z,696
2017-07-18T05:51:15.029Z,704
2017-07-18T05:51:55.479Z,716
2017-07-18T05:52:35.933Z,720
2017-07-18T05:53:16.394Z,708
2017-07-18T05:53:56.943Z,720
2017-07-18T05:54:37.401Z,668
2017-07-18T05:55:17.852Z,720
2017-07-18T05:55:58.308Z,748
2017-07-18T05:56:38.762Z,748
2017-07-18T05:57:19.216Z,752
2017-07-18T05:57:59.671Z,744
2017-07-18T05:58:40.130Z,748
2017-07-18T05:59:20.575Z,740
2017-07-18T06:00:01.057Z,720
2017-07-18T06:00:41.474Z,696
2017-07-18T06:01:21.929Z,700
2017-07-18T06:02:02.490Z,604
2017-07-18T06:02:42.955Z,588
2017-07-18T06:03:23.412Z,656
2017-07-18T06:04:03.870Z,684
2017-07-18T06:04:44.328Z,604
2017-07-18T06:05:24.773Z,572
2017-07-18T06:06:05.208Z,720
2017-07-18T06:06:45.666Z,812
2017-07-18T06:07:26.178Z,824
2017-07-18T06:08:06.615Z,836
2017-07-18T06:08:47.057Z,808
2017-07-18T06:09:27.504Z,824
2017-07-18T06:10:07.956Z,868
2017-07-18T06:10:48.410Z,872
2017-07-18T06:11:28.860Z,868
2017-07-18T06:12:09.311Z,856
2017-07-18T06:12:49.764Z,868
2017-07-18T06:13:30.220Z,876
2017-07-18T06:14:10.669Z,884
2017-07-18T06:14:51.123Z,880
2017-07-18T06:15:31.580Z,896
2017-07-18T06:16:12.034Z,896
2017-07-18T06:16:52.489Z,896
2017-07-18T06:17:32.939Z,900
2017-07-18T06:18:13.395Z,912
2017-07-18T06:18:53.848Z,892
2017-07-18T06:19:34.300Z,892
2017-07-18T06:20:14.756Z,920
2017-07-18T06:20:55.211Z,904
2017-07-18T06:21:35.667Z,864
2017-07-18T06:22:16.123Z,900
2017-07-18T06:22:56.568Z,924
2017-07-18T06:23:37.018Z,928
2017-07-18T06:24:17.474Z,928
2017-07-18T06:24:57.926Z,868
2017-07-18T06:25:38.380Z,952
2017-07-18T06:26:18.839Z,956
2017-07-18T06:26:59.287Z,964
2017-07-18T06:27:39.737Z,972
2017-07-18T06:28:20.194Z,976
2017-07-18T06:29:00.666Z,980
2017-07-18T06:29:41.116Z,992
2017-07-18T06:30:21.574Z,988
2017-07-18T06:31:02.026Z,948
2017-07-18T06:31:42.477Z,904
2017-07-18T06:32:22.958Z,876
2017-07-18T06:33:03.397Z,836
2017-07-18T06:33:43.855Z,860
2017-07-18T06:34:24.308Z,880
2017-07-18T06:35:04.760Z,920
2017-07-18T06:35:45.220Z,920
2017-07-18T06:36:25.675Z,888
2017-07-18T06:37:06.140Z,784
2017-07-18T06:37:46.597Z,784
2017-07-18T06:38:27.048Z,748
2017-07-18T06:39:07.499Z,772
2017-07-18T06:39:47.976Z,812
2017-07-18T06:40:28.439Z,808
2017-07-18T06:41:08.891Z,736
2017-07-18T06:41:49.345Z,700
2017-07-18T06:42:29.798Z,708
2017-07-18T06:43:10.251Z,716
2017-07-18T06:43:50.707Z,736
2017-07-18T06:44:31.161Z,760
2017-07-18T06:45:11.616Z,924
2017-07-18T06:45:52.070Z,896
2017-07-18T06:46:32.522Z,848
2017-07-18T06:47:12.973Z,912
2017-07-18T06:47:53.428Z,920
2017-07-18T06:48:33.887Z,936
2017-07-18T06:49:14.341Z,820
2017-07-18T06:49:54.792Z,816
2017-07-18T06:50:35.246Z,888
2017-07-18T06:51:15.692Z,776
2017-07-18T06:51:56.134Z,768
2017-07-18T06:52:36.586Z,768
2017-07-18T06:53:17.035Z,776
2017-07-18T06:53:57.481Z,784
2017-07-18T06:54:37.965Z,800
2017-07-18T06:55:18.409Z,1040
2017-07-18T06:55:58.843Z,996
2017-07-18T06:56:39.294Z,920
2017-07-18T06:57:19.753Z,860
2017-07-18T06:58:00.224Z,868
2017-07-18T06:58:40.681Z,884
2017-07-18T06:59:21.144Z,1008
2017-07-18T07:00:01.601Z,940
2017-07-18T07:00:42.085Z,1120
2017-07-18T07:01:22.524Z,1144
2017-07-18T07:02:02.987Z,1172
2017-07-18T07:02:43.449Z,1164
2017-07-18T07:03:23.893Z,1164
2017-07-18T07:04:04.341Z,1184
2017-07-18T07:04:44.799Z,1244
2017-07-18T07:05:25.258Z,1268
2017-07-18T07:06:05.747Z,1284
2017-07-18T07:06:46.154Z,1296
2017-07-18T07:07:26.605Z,1292
2017-07-18T07:08:07.070Z,1272
2017-07-18T07:08:47.523Z,1300
2017-07-18T07:09:27.980Z,1284
2017-07-18T07:10:08.418Z,1288
2017-07-18T07:10:48.898Z,1260
2017-07-18T07:11:29.297Z,1228
2017-07-18T07:12:09.852Z,1216
2017-07-18T07:12:50.305Z,1256
2017-07-18T07:13:30.734Z,1296
2017-07-18T07:14:11.182Z,1356
2017-07-18T07:14:51.634Z,1016
2017-07-18T07:15:32.099Z,1412
2017-07-18T07:16:12.563Z,1360
2017-07-18T07:16:53.018Z,1328
2017-07-18T07:17:33.468Z,1256
2017-07-18T07:18:13.917Z,1344
2017-07-18T07:18:54.346Z,1388
2017-07-18T07:19:34.792Z,1452
2017-07-18T07:20:15.236Z,1468
2017-07-18T07:20:55.686Z,1492
2017-07-18T07:21:36.120Z,1492
2017-07-18T07:22:16.561Z,1504
2017-07-18T07:22:57.021Z,1468
2017-07-18T07:23:37.424Z,1504
2017-07-18T07:25:55.512Z,1492
2017-07-18T07:26:36.083Z,1508
2017-07-18T07:27:16.538Z,1524
2017-07-18T07:27:56.997Z,1552
2017-07-18T07:28:37.463Z,1548
2017-07-18T07:29:17.898Z,1560
2017-07-18T07:29:58.353Z,1560
2017-07-18T07:30:38.805Z,1552
2017-07-18T07:31:19.256Z,1584
2017-07-18T07:31:59.726Z,1592
2017-07-18T07:32:40.142Z,1596
2017-07-18T07:33:20.593Z,1588
2017-07-18T07:34:01.071Z,1588
2017-07-18T07:34:41.512Z,1612
2017-07-18T07:35:22.001Z,1648
2017-07-18T07:36:02.467Z,1636
2017-07-18T07:36:42.918Z,1656
2017-07-18T07:37:23.370Z,1652
2017-07-18T07:38:03.823Z,1652
2017-07-18T07:38:44.267Z,1676
2017-07-18T07:39:24.719Z,1688
2017-07-18T07:40:05.173Z,1696
2017-07-18T07:40:45.645Z,1708
2017-07-18T07:41:26.084Z,1720
2017-07-18T07:42:06.572Z,1716
2017-07-18T07:42:47.032Z,1704
2017-07-18T07:43:27.479Z,1696
2017-07-18T07:44:07.928Z,1684
2017-07-18T07:44:48.381Z,1728
2017-07-18T07:45:28.830Z,1728
2017-07-18T07:46:09.286Z,1740
2017-07-18T07:46:49.737Z,1740
2017-07-18T07:47:30.205Z,1680
2017-07-18T07:48:10.660Z,1652
2017-07-18T07:48:51.102Z,1556
2017-07-18T07:49:31.559Z,1660
2017-07-18T07:50:12.012Z,1708
2017-07-18T07:50:52.467Z,1716
2017-07-18T07:51:32.924Z,1668
2017-07-18T07:52:13.375Z,1720
2017-07-18T07:52:53.832Z,1756
2017-07-18T07:53:34.283Z,1768
2017-07-18T07:54:14.729Z,1668
2017-07-18T07:54:55.181Z,1792
2017-07-18T07:55:35.636Z,1712
2017-07-18T07:56:16.098Z,1704
2017-07-18T07:56:56.542Z,1716
2017-07-18T07:57:37.000Z,1736
2017-07-18T07:58:17.456Z,1688
2017-07-18T07:58:57.909Z,1720
2017-07-18T07:59:38.349Z,1808
2017-07-18T08:00:18.811Z,1808
2017-07-18T08:00:59.260Z,1816
2017-07-18T08:01:39.718Z,1852
2017-07-18T08:02:20.171Z,1736
2017-07-18T08:03:00.585Z,1824
2017-07-18T08:03:41.038Z,1848
2017-07-18T08:04:21.484Z,1880
2017-07-18T08:05:01.959Z,1908
2017-07-18T08:05:42.416Z,1936
2017-07-18T08:06:22.873Z,1952
2017-07-18T08:07:03.326Z,2004
2017-07-18T08:07:43.777Z,2024
2017-07-18T08:08:24.224Z,1996
2017-07-18T08:09:04.658Z,1972
2017-07-18T08:09:45.136Z,2008
2017-07-18T08:10:25.555Z,2012
2017-07-18T08:11:05.993Z,2032
2017-07-18T08:11:46.430Z,1988
2017-07-18T08:12:26.873Z,1960
2017-07-18T08:13:07.230Z,1972
2017-07-18T08:13:47.695Z,1964
2017-07-18T08:14:28.150Z,1856
2017-07-18T08:15:08.608Z,1832
2017-07-18T08:15:49.062Z,2016
2017-07-18T08:16:29.515Z,1944
2017-07-18T08:17:09.967Z,1940
2017-07-18T08:17:50.416Z,1996
2017-07-18T08:18:30.864Z,2036
2017-07-18T08:19:13.100Z,2036
2017-07-18T08:19:53.562Z,2100
2017-07-18T08:20:34.034Z,2100
2017-07-18T08:21:14.494Z,2096
2017-07-18T08:21:54.937Z,2080
2017-07-18T08:22:35.381Z,2100
2017-07-18T08:23:15.841Z,2088
2017-07-18T08:23:56.277Z,2116
2017-07-18T08:24:36.722Z,2136
2017-07-18T08:25:17.154Z,2132
2017-07-18T08:25:57.584Z,2136
2017-07-18T08:26:38.055Z,2192
2017-07-18T08:27:18.515Z,2144
2017-07-18T08:27:58.978Z,2044
2017-07-18T08:28:39.422Z,2076
2017-07-18T08:29:19.876Z,2092
2017-07-18T08:30:00.330Z,2128
2017-07-18T08:30:40.785Z,2172
2017-07-18T08:31:21.238Z,2220
2017-07-18T08:32:01.680Z,2212
2017-07-18T08:32:42.134Z,2252
2017-07-18T08:33:22.589Z,2224
2017-07-18T08:34:03.041Z,2240
2017-07-18T08:34:43.510Z,2284
2017-07-18T08:35:23.954Z,2000
2017-07-18T08:36:04.398Z,2092
2017-07-18T08:36:44.804Z,2040
2017-07-18T08:37:25.276Z,2360
2017-07-18T08:38:05.720Z,2348
2017-07-18T08:38:46.172Z,2388
2017-07-18T08:39:26.623Z,2360
2017-07-18T08:40:07.071Z,2372
2017-07-18T08:40:47.526Z,2388
2017-07-18T08:41:27.994Z,2428
2017-07-18T08:42:08.452Z,2376
2017-07-18T08:42:48.901Z,2352
2017-07-18T08:43:29.353Z,2400
2017-07-18T08:44:09.793Z,2348
2017-07-18T08:44:50.206Z,2388
2017-07-18T08:45:30.645Z,2380
2017-07-18T08:46:11.094Z,2376
2017-07-18T08:46:51.547Z,2368
2017-07-18T08:47:31.990Z,2348
2017-07-18T08:48:12.442Z,2360
2017-07-18T08:48:52.911Z,2316
2017-07-18T08:49:33.342Z,2240
2017-07-18T08:50:13.746Z,2268
2017-07-18T08:50:54.159Z,2352
2017-07-18T08:51:34.664Z,2288
2017-07-18T08:52:15.093Z,2240
2017-07-18T08:52:55.528Z,2208
2017-07-18T08:53:35.890Z,2264
2017-07-18T08:54:16.312Z,2280
2017-07-18T08:54:57.693Z,2308
2017-07-18T08:55:37.119Z,2376
2017-07-18T08:56:17.526Z,2436
2017-07-18T08:56:57.963Z,2500
2017-07-18T08:57:38.360Z,2508
2017-07-18T08:58:18.801Z,2528
2017-07-18T08:58:59.241Z,2548
2017-07-18T08:59:39.706Z,2580
2017-07-18T09:00:20.084Z,2608
2017-07-18T09:01:00.527Z,2572
2017-07-18T09:01:40.967Z,2580
2017-07-18T09:02:21.370Z,2608
2017-07-18T09:03:01.795Z,2540
2017-07-18T09:03:42.212Z,2596
2017-07-18T09:04:22.628Z,2652
2017-07-18T09:05:03.058Z,2584
2017-07-18T09:05:43.459Z,2696
2017-07-18T09:06:23.938Z,2704
2017-07-18T09:07:04.314Z,2744
2017-07-18T09:07:44.714Z,2768
2017-07-18T09:08:25.199Z,2688
2017-07-18T09:09:05.549Z,2792
2017-07-18T09:09:45.963Z,2812
2017-07-18T09:10:26.437Z,2832
2017-07-18T09:11:06.857Z,2840
2017-07-18T09:11:47.305Z,2800
2017-07-18T09:12:27.749Z,2748
2017-07-18T09:13:08.198Z,2664
2017-07-18T09:13:48.649Z,2568
2017-07-18T09:14:29.099Z,2528
2017-07-18T09:15:09.548Z,2560
2017-07-18T09:15:50.010Z,2644
2017-07-18T09:16:30.463Z,2624
2017-07-18T09:17:10.912Z,2580
2017-07-18T09:17:51.366Z,2424
2017-07-18T09:18:31.822Z,2468
2017-07-18T09:19:12.278Z,2468
2017-07-18T09:19:52.746Z,2368
2017-07-18T09:20:33.209Z,2264
2017-07-18T09:21:13.665Z,2452
2017-07-18T09:21:54.126Z,2448
2017-07-18T09:22:34.576Z,2536
2017-07-18T09:23:15.021Z,2588
2017-07-18T09:23:55.476Z,2604
2017-07-18T09:24:35.930Z,2744
2017-07-18T09:25:16.381Z,2744
2017-07-18T09:27:34.284Z,2640
2017-07-18T09:28:14.725Z,2696
2017-07-18T09:28:55.178Z,2732
2017-07-18T09:29:35.633Z,2744
2017-07-18T09:30:16.100Z,2596
2017-07-18T09:30:56.546Z,2720
2017-07-18T09:31:36.993Z,2760
2017-07-18T09:32:17.449Z,2700
2017-07-18T09:32:57.897Z,2696
2017-07-18T09:33:38.359Z,2724
2017-07-18T09:34:18.828Z,2760
2017-07-18T09:34:59.265Z,2788